sensor_id;sensor_type;location;lat;lon;timestamp;P1;durP1;ratioP1;P2;durP2;ratioP2
55172;SDS011;41061;52.822;6.860;2023-06-26T00:00:29;8.13;;;6.35;;
55172;SDS011;41061;52.822;6.860;2023-06-26T00:02:55;7.45;;;6.55;;
55172;SDS011;41061;52.822;6.860;2023-06-26T00:05:20;8.25;;;6.70;;
55172;SDS011;41061;52.822;6.860;2023-06-26T00:07:46;10.25;;;6.25;;
55172;SDS011;41061;52.822;6.860;2023-06-26T00:10:12;12.07;;;7.65;;
55172;SDS011;41061;52.822;6.860;2023-06-26T00:12:38;9.02;;;6.80;;
55172;SDS011;41061;52.822;6.860;2023-06-26T00:15:04;8.77;;;6.93;;
55172;SDS011;41061;52.822;6.860;2023-06-26T00:17:30;8.73;;;7.10;;
55172;SDS011;41061;52.822;6.860;2023-06-26T00:20:01;9.18;;;7.03;;
55172;SDS011;41061;52.822;6.860;2023-06-26T00:22:28;8.30;;;6.70;;
55172;SDS011;41061;52.822;6.860;2023-06-26T00:24:53;9.82;;;6.38;;
55172;SDS011;41061;52.822;6.860;2023-06-26T00:27:19;8.32;;;7.20;;
55172;SDS011;41061;52.822;6.860;2023-06-26T00:29:45;7.53;;;6.18;;
55172;SDS011;41061;52.822;6.860;2023-06-26T00:32:11;10.43;;;6.95;;
55172;SDS011;41061;52.822;6.860;2023-06-26T00:34:37;9.30;;;7.05;;
55172;SDS011;41061;52.822;6.860;2023-06-26T00:37:02;9.95;;;7.03;;
55172;SDS011;41061;52.822;6.860;2023-06-26T00:39:29;9.40;;;6.88;;
55172;SDS011;41061;52.822;6.860;2023-06-26T00:41:54;8.90;;;6.78;;
55172;SDS011;41061;52.822;6.860;2023-06-26T00:44:20;7.65;;;6.65;;
55172;SDS011;41061;52.822;6.860;2023-06-26T00:46:46;7.90;;;7.05;;
55172;SDS011;41061;52.822;6.860;2023-06-26T00:49:12;7.75;;;6.28;;
55172;SDS011;41061;52.822;6.860;2023-06-26T00:51:38;8.85;;;7.10;;
55172;SDS011;41061;52.822;6.860;2023-06-26T00:54:05;7.97;;;6.63;;
55172;SDS011;41061;52.822;6.860;2023-06-26T00:56:31;7.78;;;6.80;;
55172;SDS011;41061;52.822;6.860;2023-06-26T00:58:57;10.10;;;7.00;;
55172;SDS011;41061;52.822;6.860;2023-06-26T01:01:23;9.07;;;6.85;;
55172;SDS011;41061;52.822;6.860;2023-06-26T01:03:51;8.98;;;6.70;;
55172;SDS011;41061;52.822;6.860;2023-06-26T01:06:18;9.82;;;7.13;;
55172;SDS011;41061;52.822;6.860;2023-06-26T01:08:47;15.23;;;7.57;;
55172;SDS011;41061;52.822;6.860;2023-06-26T01:11:13;9.57;;;6.55;;
55172;SDS011;41061;52.822;6.860;2023-06-26T01:13:41;7.82;;;6.68;;
55172;SDS011;41061;52.822;6.860;2023-06-26T01:16:11;9.90;;;7.25;;
55172;SDS011;41061;52.822;6.860;2023-06-26T01:18:38;10.35;;;7.00;;
55172;SDS011;41061;52.822;6.860;2023-06-26T01:21:10;9.45;;;7.10;;
55172;SDS011;41061;52.822;6.860;2023-06-26T01:23:58;7.88;;;7.07;;
55172;SDS011;41061;52.822;6.860;2023-06-26T01:26:34;8.10;;;6.82;;
55172;SDS011;41061;52.822;6.860;2023-06-26T01:29:02;8.52;;;7.00;;
55172;SDS011;41061;52.822;6.860;2023-06-26T01:31:29;9.75;;;7.35;;
55172;SDS011;41061;52.822;6.860;2023-06-26T01:33:57;10.15;;;7.13;;
55172;SDS011;41061;52.822;6.860;2023-06-26T01:36:24;9.70;;;7.28;;
55172;SDS011;41061;52.822;6.860;2023-06-26T01:38:50;8.52;;;7.32;;
55172;SDS011;41061;52.822;6.860;2023-06-26T01:41:16;7.20;;;6.50;;
55172;SDS011;41061;52.822;6.860;2023-06-26T01:46:40;9.38;;;7.28;;
55172;SDS011;41061;52.822;6.860;2023-06-26T01:49:40;8.40;;;6.90;;
55172;SDS011;41061;52.822;6.860;2023-06-26T01:52:49;11.05;;;7.95;;
55172;SDS011;41061;52.822;6.860;2023-06-26T01:58:33;9.00;;;7.72;;
55172;SDS011;41061;52.822;6.860;2023-06-26T02:01:00;8.02;;;7.10;;
55172;SDS011;41061;52.822;6.860;2023-06-26T02:03:26;7.40;;;6.57;;
55172;SDS011;41061;52.822;6.860;2023-06-26T02:05:52;9.52;;;7.53;;
55172;SDS011;41061;52.822;6.860;2023-06-26T02:08:18;12.15;;;7.90;;
55172;SDS011;41061;52.822;6.860;2023-06-26T02:10:43;10.30;;;7.30;;
55172;SDS011;41061;52.822;6.860;2023-06-26T02:13:09;9.60;;;8.07;;
55172;SDS011;41061;52.822;6.860;2023-06-26T02:15:35;10.63;;;7.93;;
55172;SDS011;41061;52.822;6.860;2023-06-26T02:18:01;8.80;;;7.35;;
55172;SDS011;41061;52.822;6.860;2023-06-26T02:20:26;10.38;;;7.70;;
55172;SDS011;41061;52.822;6.860;2023-06-26T02:22:52;10.10;;;7.93;;
55172;SDS011;41061;52.822;6.860;2023-06-26T02:25:18;9.30;;;7.70;;
55172;SDS011;41061;52.822;6.860;2023-06-26T02:27:44;9.73;;;8.13;;
55172;SDS011;41061;52.822;6.860;2023-06-26T02:30:09;8.85;;;7.40;;
55172;SDS011;41061;52.822;6.860;2023-06-26T02:32:35;10.40;;;7.82;;
55172;SDS011;41061;52.822;6.860;2023-06-26T02:35:01;8.63;;;7.63;;
55172;SDS011;41061;52.822;6.860;2023-06-26T02:37:27;10.68;;;7.72;;
55172;SDS011;41061;52.822;6.860;2023-06-26T02:39:53;10.15;;;8.35;;
55172;SDS011;41061;52.822;6.860;2023-06-26T02:42:18;10.65;;;8.43;;
55172;SDS011;41061;52.822;6.860;2023-06-26T02:44:44;9.23;;;7.47;;
55172;SDS011;41061;52.822;6.860;2023-06-26T02:47:10;8.90;;;7.22;;
55172;SDS011;41061;52.822;6.860;2023-06-26T02:49:35;11.25;;;7.68;;
55172;SDS011;41061;52.822;6.860;2023-06-26T02:52:01;11.25;;;8.15;;
55172;SDS011;41061;52.822;6.860;2023-06-26T02:54:27;9.43;;;8.07;;
55172;SDS011;41061;52.822;6.860;2023-06-26T02:56:52;9.07;;;7.75;;
55172;SDS011;41061;52.822;6.860;2023-06-26T02:59:18;11.35;;;7.80;;
55172;SDS011;41061;52.822;6.860;2023-06-26T03:01:44;9.27;;;8.05;;
55172;SDS011;41061;52.822;6.860;2023-06-26T03:04:10;9.48;;;7.72;;
55172;SDS011;41061;52.822;6.860;2023-06-26T03:06:36;9.23;;;7.80;;
55172;SDS011;41061;52.822;6.860;2023-06-26T03:09:01;11.52;;;7.90;;
55172;SDS011;41061;52.822;6.860;2023-06-26T03:11:28;10.48;;;8.68;;
55172;SDS011;41061;52.822;6.860;2023-06-26T03:13:53;9.52;;;8.27;;
55172;SDS011;41061;52.822;6.860;2023-06-26T03:16:19;10.73;;;8.52;;
55172;SDS011;41061;52.822;6.860;2023-06-26T03:18:45;11.55;;;8.68;;
55172;SDS011;41061;52.822;6.860;2023-06-26T03:21:11;9.38;;;8.40;;
55172;SDS011;41061;52.822;6.860;2023-06-26T03:23:36;11.27;;;9.20;;
55172;SDS011;41061;52.822;6.860;2023-06-26T03:26:02;10.10;;;8.85;;
55172;SDS011;41061;52.822;6.860;2023-06-26T03:28:28;10.68;;;9.00;;
55172;SDS011;41061;52.822;6.860;2023-06-26T03:30:56;11.18;;;7.95;;
55172;SDS011;41061;52.822;6.860;2023-06-26T03:33:22;10.40;;;8.55;;
55172;SDS011;41061;52.822;6.860;2023-06-26T03:35:47;10.48;;;8.85;;
55172;SDS011;41061;52.822;6.860;2023-06-26T03:38:13;11.82;;;9.65;;
55172;SDS011;41061;52.822;6.860;2023-06-26T03:40:39;12.05;;;8.88;;
55172;SDS011;41061;52.822;6.860;2023-06-26T03:43:04;12.40;;;9.77;;
55172;SDS011;41061;52.822;6.860;2023-06-26T03:45:30;13.02;;;10.40;;
55172;SDS011;41061;52.822;6.860;2023-06-26T03:47:56;12.60;;;10.10;;
55172;SDS011;41061;52.822;6.860;2023-06-26T03:50:21;11.52;;;9.88;;
55172;SDS011;41061;52.822;6.860;2023-06-26T03:52:47;12.00;;;9.90;;
55172;SDS011;41061;52.822;6.860;2023-06-26T03:55:14;11.80;;;9.77;;
55172;SDS011;41061;52.822;6.860;2023-06-26T03:57:40;11.55;;;9.88;;
55172;SDS011;41061;52.822;6.860;2023-06-26T04:00:06;12.60;;;9.93;;
55172;SDS011;41061;52.822;6.860;2023-06-26T04:02:39;15.05;;;9.77;;
55172;SDS011;41061;52.822;6.860;2023-06-26T04:05:04;12.45;;;10.32;;
55172;SDS011;41061;52.822;6.860;2023-06-26T04:07:30;15.57;;;10.25;;
55172;SDS011;41061;52.822;6.860;2023-06-26T04:09:57;11.63;;;9.68;;
55172;SDS011;41061;52.822;6.860;2023-06-26T04:12:23;12.48;;;10.25;;
55172;SDS011;41061;52.822;6.860;2023-06-26T04:14:48;12.65;;;10.20;;
55172;SDS011;41061;52.822;6.860;2023-06-26T04:17:14;13.00;;;10.02;;
55172;SDS011;41061;52.822;6.860;2023-06-26T04:19:40;12.57;;;9.13;;
55172;SDS011;41061;52.822;6.860;2023-06-26T04:22:06;12.85;;;9.98;;
55172;SDS011;41061;52.822;6.860;2023-06-26T04:24:31;12.25;;;9.93;;
55172;SDS011;41061;52.822;6.860;2023-06-26T04:26:57;14.95;;;9.38;;
55172;SDS011;41061;52.822;6.860;2023-06-26T04:29:25;13.52;;;8.93;;
55172;SDS011;41061;52.822;6.860;2023-06-26T04:31:52;13.32;;;9.65;;
55172;SDS011;41061;52.822;6.860;2023-06-26T04:34:22;11.85;;;8.93;;
55172;SDS011;41061;52.822;6.860;2023-06-26T04:36:52;10.07;;;8.52;;
55172;SDS011;41061;52.822;6.860;2023-06-26T04:39:18;10.90;;;9.15;;
55172;SDS011;41061;52.822;6.860;2023-06-26T04:41:44;12.50;;;10.00;;
55172;SDS011;41061;52.822;6.860;2023-06-26T04:44:10;10.80;;;9.43;;
55172;SDS011;41061;52.822;6.860;2023-06-26T04:46:36;13.60;;;10.23;;
55172;SDS011;41061;52.822;6.860;2023-06-26T04:49:11;12.43;;;9.80;;
55172;SDS011;41061;52.822;6.860;2023-06-26T04:51:37;11.40;;;9.55;;
55172;SDS011;41061;52.822;6.860;2023-06-26T04:54:08;12.40;;;10.13;;
55172;SDS011;41061;52.822;6.860;2023-06-26T04:56:35;13.63;;;9.85;;
55172;SDS011;41061;52.822;6.860;2023-06-26T04:59:02;13.32;;;10.05;;
55172;SDS011;41061;52.822;6.860;2023-06-26T05:01:28;12.00;;;9.60;;
55172;SDS011;41061;52.822;6.860;2023-06-26T05:04:01;13.30;;;9.52;;
55172;SDS011;41061;52.822;6.860;2023-06-26T05:06:27;14.82;;;9.25;;
55172;SDS011;41061;52.822;6.860;2023-06-26T05:08:53;12.32;;;7.95;;
55172;SDS011;41061;52.822;6.860;2023-06-26T05:11:19;10.95;;;8.13;;
55172;SDS011;41061;52.822;6.860;2023-06-26T05:13:44;10.73;;;7.80;;
55172;SDS011;41061;52.822;6.860;2023-06-26T05:16:10;9.52;;;7.10;;
55172;SDS011;41061;52.822;6.860;2023-06-26T05:18:36;9.88;;;6.32;;
55172;SDS011;41061;52.822;6.860;2023-06-26T05:21:02;10.32;;;6.80;;
55172;SDS011;41061;52.822;6.860;2023-06-26T05:23:32;13.02;;;6.55;;
55172;SDS011;41061;52.822;6.860;2023-06-26T05:25:58;8.35;;;6.07;;
55172;SDS011;41061;52.822;6.860;2023-06-26T05:28:28;11.93;;;6.07;;
55172;SDS011;41061;52.822;6.860;2023-06-26T05:30:56;11.10;;;6.00;;
55172;SDS011;41061;52.822;6.860;2023-06-26T05:33:23;8.57;;;5.40;;
55172;SDS011;41061;52.822;6.860;2023-06-26T05:35:53;11.38;;;5.47;;
55172;SDS011;41061;52.822;6.860;2023-06-26T05:38:19;12.38;;;6.43;;
55172;SDS011;41061;52.822;6.860;2023-06-26T05:40:45;12.65;;;5.93;;
55172;SDS011;41061;52.822;6.860;2023-06-26T05:43:11;14.55;;;6.32;;
55172;SDS011;41061;52.822;6.860;2023-06-26T05:45:37;15.30;;;6.00;;
55172;SDS011;41061;52.822;6.860;2023-06-26T05:48:03;11.88;;;6.15;;
55172;SDS011;41061;52.822;6.860;2023-06-26T05:50:29;14.00;;;6.35;;
55172;SDS011;41061;52.822;6.860;2023-06-26T05:52:55;11.73;;;5.93;;
55172;SDS011;41061;52.822;6.860;2023-06-26T05:55:22;14.23;;;5.82;;
55172;SDS011;41061;52.822;6.860;2023-06-26T05:57:48;13.68;;;6.15;;
55172;SDS011;41061;52.822;6.860;2023-06-26T06:00:15;13.60;;;7.05;;
55172;SDS011;41061;52.822;6.860;2023-06-26T06:02:42;11.70;;;6.53;;
55172;SDS011;41061;52.822;6.860;2023-06-26T06:05:08;11.77;;;6.40;;
55172;SDS011;41061;52.822;6.860;2023-06-26T06:07:35;13.98;;;6.47;;
55172;SDS011;41061;52.822;6.860;2023-06-26T06:10:01;11.30;;;5.88;;
55172;SDS011;41061;52.822;6.860;2023-06-26T06:12:28;10.75;;;5.15;;
55172;SDS011;41061;52.822;6.860;2023-06-26T06:14:55;8.52;;;5.13;;
55172;SDS011;41061;52.822;6.860;2023-06-26T06:17:21;12.40;;;5.90;;
55172;SDS011;41061;52.822;6.860;2023-06-26T06:19:47;11.35;;;4.95;;
55172;SDS011;41061;52.822;6.860;2023-06-26T06:22:13;12.15;;;5.47;;
55172;SDS011;41061;52.822;6.860;2023-06-26T06:24:39;9.55;;;4.80;;
55172;SDS011;41061;52.822;6.860;2023-06-26T06:27:05;10.00;;;4.97;;
55172;SDS011;41061;52.822;6.860;2023-06-26T06:29:30;11.15;;;5.57;;
55172;SDS011;41061;52.822;6.860;2023-06-26T06:31:56;9.07;;;5.18;;
55172;SDS011;41061;52.822;6.860;2023-06-26T06:34:22;12.10;;;4.57;;
55172;SDS011;41061;52.822;6.860;2023-06-26T06:36:48;8.68;;;4.70;;
55172;SDS011;41061;52.822;6.860;2023-06-26T06:39:15;13.38;;;4.88;;
55172;SDS011;41061;52.822;6.860;2023-06-26T06:41:41;8.57;;;4.78;;
55172;SDS011;41061;52.822;6.860;2023-06-26T06:44:07;7.45;;;3.03;;
55172;SDS011;41061;52.822;6.860;2023-06-26T06:46:33;6.68;;;3.10;;
55172;SDS011;41061;52.822;6.860;2023-06-26T06:48:58;7.25;;;2.63;;
55172;SDS011;41061;52.822;6.860;2023-06-26T06:51:25;7.75;;;3.13;;
55172;SDS011;41061;52.822;6.860;2023-06-26T06:53:51;5.68;;;2.70;;
55172;SDS011;41061;52.822;6.860;2023-06-26T06:56:16;4.93;;;2.10;;
55172;SDS011;41061;52.822;6.860;2023-06-26T06:58:42;5.20;;;2.00;;
55172;SDS011;41061;52.822;6.860;2023-06-26T07:01:11;7.25;;;2.05;;
55172;SDS011;41061;52.822;6.860;2023-06-26T07:03:38;5.10;;;2.08;;
55172;SDS011;41061;52.822;6.860;2023-06-26T07:06:04;4.95;;;2.00;;
55172;SDS011;41061;52.822;6.860;2023-06-26T07:08:30;5.20;;;1.98;;
55172;SDS011;41061;52.822;6.860;2023-06-26T07:10:56;8.05;;;1.88;;
55172;SDS011;41061;52.822;6.860;2023-06-26T07:13:22;4.53;;;1.98;;
55172;SDS011;41061;52.822;6.860;2023-06-26T07:15:48;6.68;;;2.08;;
55172;SDS011;41061;52.822;6.860;2023-06-26T07:18:14;5.28;;;1.83;;
55172;SDS011;41061;52.822;6.860;2023-06-26T07:20:40;4.15;;;1.65;;
55172;SDS011;41061;52.822;6.860;2023-06-26T07:23:06;4.95;;;1.80;;
55172;SDS011;41061;52.822;6.860;2023-06-26T07:25:32;7.85;;;1.60;;
55172;SDS011;41061;52.822;6.860;2023-06-26T07:27:58;5.00;;;1.73;;
55172;SDS011;41061;52.822;6.860;2023-06-26T07:30:24;4.07;;;1.60;;
55172;SDS011;41061;52.822;6.860;2023-06-26T07:32:49;6.25;;;1.75;;
55172;SDS011;41061;52.822;6.860;2023-06-26T07:35:15;9.98;;;1.92;;
55172;SDS011;41061;52.822;6.860;2023-06-26T07:37:41;5.97;;;1.35;;
55172;SDS011;41061;52.822;6.860;2023-06-26T07:40:07;4.00;;;1.50;;
55172;SDS011;41061;52.822;6.860;2023-06-26T07:42:34;5.07;;;1.65;;
55172;SDS011;41061;52.822;6.860;2023-06-26T07:45:00;8.38;;;1.83;;
55172;SDS011;41061;52.822;6.860;2023-06-26T07:47:26;3.55;;;1.58;;
55172;SDS011;41061;52.822;6.860;2023-06-26T07:49:52;5.93;;;1.52;;
55172;SDS011;41061;52.822;6.860;2023-06-26T07:52:18;4.05;;;1.60;;
55172;SDS011;41061;52.822;6.860;2023-06-26T07:54:44;6.32;;;1.63;;
55172;SDS011;41061;52.822;6.860;2023-06-26T07:57:10;3.25;;;1.48;;
55172;SDS011;41061;52.822;6.860;2023-06-26T07:59:38;5.35;;;1.50;;
55172;SDS011;41061;52.822;6.860;2023-06-26T08:02:04;4.38;;;1.50;;
55172;SDS011;41061;52.822;6.860;2023-06-26T08:04:30;3.90;;;1.60;;
55172;SDS011;41061;52.822;6.860;2023-06-26T08:06:59;6.15;;;1.50;;
55172;SDS011;41061;52.822;6.860;2023-06-26T08:09:27;3.88;;;1.25;;
55172;SDS011;41061;52.822;6.860;2023-06-26T08:11:54;3.80;;;1.60;;
55172;SDS011;41061;52.822;6.860;2023-06-26T08:14:20;4.28;;;1.70;;
55172;SDS011;41061;52.822;6.860;2023-06-26T08:16:46;4.38;;;1.33;;
55172;SDS011;41061;52.822;6.860;2023-06-26T08:19:13;2.87;;;1.53;;
55172;SDS011;41061;52.822;6.860;2023-06-26T08:21:40;2.58;;;1.50;;
55172;SDS011;41061;52.822;6.860;2023-06-26T08:24:06;5.38;;;1.65;;
55172;SDS011;41061;52.822;6.860;2023-06-26T08:26:32;2.58;;;1.27;;
55172;SDS011;41061;52.822;6.860;2023-06-26T08:28:58;2.65;;;1.50;;
55172;SDS011;41061;52.822;6.860;2023-06-26T08:31:24;3.80;;;1.45;;
55172;SDS011;41061;52.822;6.860;2023-06-26T08:33:50;4.18;;;1.30;;
55172;SDS011;41061;52.822;6.860;2023-06-26T08:36:15;3.47;;;1.30;;
55172;SDS011;41061;52.822;6.860;2023-06-26T08:38:41;5.78;;;1.80;;
55172;SDS011;41061;52.822;6.860;2023-06-26T08:41:07;8.63;;;1.40;;
55172;SDS011;41061;52.822;6.860;2023-06-26T08:43:34;2.35;;;1.15;;
55172;SDS011;41061;52.822;6.860;2023-06-26T08:46:01;4.13;;;1.55;;
55172;SDS011;41061;52.822;6.860;2023-06-26T08:48:29;4.03;;;1.20;;
55172;SDS011;41061;52.822;6.860;2023-06-26T08:51:00;5.00;;;1.25;;
55172;SDS011;41061;52.822;6.860;2023-06-26T08:53:43;5.35;;;1.40;;
55172;SDS011;41061;52.822;6.860;2023-06-26T08:56:17;4.85;;;1.83;;
55172;SDS011;41061;52.822;6.860;2023-06-26T08:58:47;3.15;;;1.33;;
55172;SDS011;41061;52.822;6.860;2023-06-26T09:01:13;5.38;;;1.20;;
55172;SDS011;41061;52.822;6.860;2023-06-26T09:03:39;3.33;;;1.30;;
55172;SDS011;41061;52.822;6.860;2023-06-26T09:06:06;4.10;;;1.10;;
55172;SDS011;41061;52.822;6.860;2023-06-26T09:08:33;4.03;;;1.75;;
55172;SDS011;41061;52.822;6.860;2023-06-26T09:10:59;4.32;;;1.92;;
55172;SDS011;41061;52.822;6.860;2023-06-26T09:13:25;3.75;;;1.30;;
55172;SDS011;41061;52.822;6.860;2023-06-26T09:15:52;3.47;;;1.30;;
55172;SDS011;41061;52.822;6.860;2023-06-26T09:18:20;6.82;;;1.33;;
55172;SDS011;41061;52.822;6.860;2023-06-26T09:20:46;6.15;;;1.55;;
55172;SDS011;41061;52.822;6.860;2023-06-26T09:23:13;4.57;;;1.48;;
55172;SDS011;41061;52.822;6.860;2023-06-26T09:25:39;6.13;;;1.55;;
55172;SDS011;41061;52.822;6.860;2023-06-26T09:28:06;1.90;;;1.38;;
55172;SDS011;41061;52.822;6.860;2023-06-26T09:30:32;7.85;;;1.70;;
55172;SDS011;41061;52.822;6.860;2023-06-26T09:33:18;3.72;;;1.40;;
55172;SDS011;41061;52.822;6.860;2023-06-26T09:35:45;5.63;;;1.80;;
55172;SDS011;41061;52.822;6.860;2023-06-26T09:38:14;4.00;;;1.75;;
55172;SDS011;41061;52.822;6.860;2023-06-26T09:40:40;4.05;;;1.42;;
55172;SDS011;41061;52.822;6.860;2023-06-26T09:43:07;4.75;;;2.15;;
55172;SDS011;41061;52.822;6.860;2023-06-26T09:45:34;3.47;;;1.30;;
55172;SDS011;41061;52.822;6.860;2023-06-26T09:48:03;3.67;;;1.83;;
55172;SDS011;41061;52.822;6.860;2023-06-26T09:50:30;5.28;;;1.52;;
55172;SDS011;41061;52.822;6.860;2023-06-26T09:53:01;6.60;;;1.55;;
55172;SDS011;41061;52.822;6.860;2023-06-26T09:55:34;4.50;;;1.83;;
55172;SDS011;41061;52.822;6.860;2023-06-26T09:58:01;4.07;;;1.98;;
55172;SDS011;41061;52.822;6.860;2023-06-26T10:00:28;5.72;;;1.50;;
55172;SDS011;41061;52.822;6.860;2023-06-26T10:02:54;5.68;;;1.50;;
55172;SDS011;41061;52.822;6.860;2023-06-26T10:05:20;5.53;;;1.88;;
55172;SDS011;41061;52.822;6.860;2023-06-26T10:07:46;4.13;;;1.80;;
55172;SDS011;41061;52.822;6.860;2023-06-26T10:10:13;4.47;;;1.40;;
55172;SDS011;41061;52.822;6.860;2023-06-26T10:12:39;6.85;;;1.60;;
55172;SDS011;41061;52.822;6.860;2023-06-26T10:15:06;4.93;;;1.42;;
55172;SDS011;41061;52.822;6.860;2023-06-26T10:17:34;4.38;;;1.23;;
55172;SDS011;41061;52.822;6.860;2023-06-26T10:20:04;5.78;;;1.83;;
55172;SDS011;41061;52.822;6.860;2023-06-26T10:22:33;10.38;;;1.58;;
55172;SDS011;41061;52.822;6.860;2023-06-26T10:25:01;5.13;;;1.52;;
55172;SDS011;41061;52.822;6.860;2023-06-26T10:27:30;3.83;;;1.52;;
55172;SDS011;41061;52.822;6.860;2023-06-26T10:30:00;3.20;;;1.33;;
55172;SDS011;41061;52.822;6.860;2023-06-26T10:32:28;4.88;;;1.40;;
55172;SDS011;41061;52.822;6.860;2023-06-26T10:34:55;2.05;;;1.30;;
55172;SDS011;41061;52.822;6.860;2023-06-26T10:37:21;4.13;;;1.60;;
55172;SDS011;41061;52.822;6.860;2023-06-26T10:40:06;4.60;;;1.48;;
55172;SDS011;41061;52.822;6.860;2023-06-26T10:42:36;2.58;;;1.60;;
55172;SDS011;41061;52.822;6.860;2023-06-26T10:45:09;4.13;;;1.70;;
55172;SDS011;41061;52.822;6.860;2023-06-26T10:47:37;5.90;;;1.63;;
55172;SDS011;41061;52.822;6.860;2023-06-26T10:55:34;6.43;;;1.20;;
55172;SDS011;41061;52.822;6.860;2023-06-26T10:58:00;1.45;;;0.82;;
55172;SDS011;41061;52.822;6.860;2023-06-26T11:00:29;5.30;;;1.70;;
55172;SDS011;41061;52.822;6.860;2023-06-26T11:02:56;4.57;;;1.63;;
55172;SDS011;41061;52.822;6.860;2023-06-26T11:08:04;3.65;;;1.77;;
55172;SDS011;41061;52.822;6.860;2023-06-26T11:10:53;4.22;;;1.85;;
55172;SDS011;41061;52.822;6.860;2023-06-26T11:13:18;5.97;;;1.90;;
55172;SDS011;41061;52.822;6.860;2023-06-26T11:15:44;4.90;;;1.70;;
55172;SDS011;41061;52.822;6.860;2023-06-26T11:18:11;3.05;;;1.50;;
55172;SDS011;41061;52.822;6.860;2023-06-26T11:20:37;5.20;;;1.67;;
55172;SDS011;41061;52.822;6.860;2023-06-26T11:23:04;6.15;;;1.60;;
55172;SDS011;41061;52.822;6.860;2023-06-26T11:25:35;6.55;;;1.60;;
55172;SDS011;41061;52.822;6.860;2023-06-26T11:28:02;3.47;;;1.55;;
55172;SDS011;41061;52.822;6.860;2023-06-26T11:30:28;4.88;;;1.40;;
55172;SDS011;41061;52.822;6.860;2023-06-26T11:33:07;2.92;;;1.90;;
55172;SDS011;41061;52.822;6.860;2023-06-26T11:35:33;2.25;;;0.95;;
55172;SDS011;41061;52.822;6.860;2023-06-26T11:38:00;5.40;;;1.60;;
55172;SDS011;41061;52.822;6.860;2023-06-26T11:40:30;3.30;;;1.00;;
55172;SDS011;41061;52.822;6.860;2023-06-26T11:43:00;5.50;;;2.25;;
55172;SDS011;41061;52.822;6.860;2023-06-26T11:45:32;3.33;;;1.17;;
55172;SDS011;41061;52.822;6.860;2023-06-26T11:47:59;2.70;;;1.30;;
55172;SDS011;41061;52.822;6.860;2023-06-26T11:50:25;5.93;;;1.30;;
55172;SDS011;41061;52.822;6.860;2023-06-26T11:52:55;2.95;;;1.10;;
55172;SDS011;41061;52.822;6.860;2023-06-26T11:55:25;2.70;;;1.35;;
55172;SDS011;41061;52.822;6.860;2023-06-26T11:57:55;3.83;;;1.42;;
55172;SDS011;41061;52.822;6.860;2023-06-26T12:00:21;3.63;;;1.23;;
55172;SDS011;41061;52.822;6.860;2023-06-26T12:02:48;4.63;;;1.95;;
55172;SDS011;41061;52.822;6.860;2023-06-26T12:05:17;4.70;;;1.15;;
55172;SDS011;41061;52.822;6.860;2023-06-26T12:07:44;3.45;;;1.40;;
55172;SDS011;41061;52.822;6.860;2023-06-26T12:10:11;4.95;;;1.48;;
55172;SDS011;41061;52.822;6.860;2023-06-26T12:12:38;5.57;;;1.83;;
55172;SDS011;41061;52.822;6.860;2023-06-26T12:15:05;3.00;;;1.50;;
55172;SDS011;41061;52.822;6.860;2023-06-26T12:17:31;5.07;;;1.38;;
55172;SDS011;41061;52.822;6.860;2023-06-26T12:19:57;6.63;;;1.30;;
55172;SDS011;41061;52.822;6.860;2023-06-26T12:22:24;8.45;;;1.27;;
55172;SDS011;41061;52.822;6.860;2023-06-26T12:24:50;3.80;;;1.15;;
55172;SDS011;41061;52.822;6.860;2023-06-26T12:27:17;3.10;;;1.10;;
55172;SDS011;41061;52.822;6.860;2023-06-26T12:29:51;3.17;;;1.00;;
55172;SDS011;41061;52.822;6.860;2023-06-26T12:32:24;5.65;;;1.00;;
55172;SDS011;41061;52.822;6.860;2023-06-26T12:34:51;3.42;;;1.02;;
55172;SDS011;41061;52.822;6.860;2023-06-26T12:37:18;7.70;;;1.10;;
55172;SDS011;41061;52.822;6.860;2023-06-26T12:39:45;4.78;;;0.95;;
55172;SDS011;41061;52.822;6.860;2023-06-26T12:42:13;4.35;;;1.08;;
55172;SDS011;41061;52.822;6.860;2023-06-26T12:44:39;3.50;;;1.10;;
55172;SDS011;41061;52.822;6.860;2023-06-26T12:47:05;6.03;;;1.23;;
55172;SDS011;41061;52.822;6.860;2023-06-26T12:49:36;5.85;;;1.50;;
55172;SDS011;41061;52.822;6.860;2023-06-26T12:52:07;5.63;;;1.20;;
55172;SDS011;41061;52.822;6.860;2023-06-26T12:54:33;4.22;;;1.08;;
55172;SDS011;41061;52.822;6.860;2023-06-26T12:57:00;3.60;;;1.20;;
55172;SDS011;41061;52.822;6.860;2023-06-26T12:59:26;8.13;;;1.45;;
55172;SDS011;41061;52.822;6.860;2023-06-26T13:01:52;6.95;;;0.95;;
55172;SDS011;41061;52.822;6.860;2023-06-26T13:04:18;7.30;;;1.35;;
55172;SDS011;41061;52.822;6.860;2023-06-26T13:06:44;8.68;;;1.45;;
55172;SDS011;41061;52.822;6.860;2023-06-26T13:09:10;3.67;;;1.10;;
55172;SDS011;41061;52.822;6.860;2023-06-26T13:11:37;7.95;;;1.50;;
55172;SDS011;41061;52.822;6.860;2023-06-26T13:14:03;3.30;;;1.23;;
55172;SDS011;41061;52.822;6.860;2023-06-26T13:16:29;4.47;;;1.50;;
55172;SDS011;41061;52.822;6.860;2023-06-26T13:18:57;4.07;;;1.20;;
55172;SDS011;41061;52.822;6.860;2023-06-26T13:21:23;5.20;;;1.10;;
55172;SDS011;41061;52.822;6.860;2023-06-26T13:23:49;3.40;;;0.80;;
55172;SDS011;41061;52.822;6.860;2023-06-26T13:26:16;6.82;;;1.10;;
55172;SDS011;41061;52.822;6.860;2023-06-26T13:28:42;4.82;;;1.13;;
55172;SDS011;41061;52.822;6.860;2023-06-26T13:31:08;6.65;;;1.40;;
55172;SDS011;41061;52.822;6.860;2023-06-26T13:33:34;5.65;;;1.35;;
55172;SDS011;41061;52.822;6.860;2023-06-26T13:36:00;3.05;;;0.98;;
55172;SDS011;41061;52.822;6.860;2023-06-26T13:38:29;3.58;;;1.30;;
55172;SDS011;41061;52.822;6.860;2023-06-26T13:40:56;3.08;;;0.98;;
55172;SDS011;41061;52.822;6.860;2023-06-26T13:43:23;5.82;;;1.25;;
55172;SDS011;41061;52.822;6.860;2023-06-26T13:45:49;3.60;;;1.00;;
55172;SDS011;41061;52.822;6.860;2023-06-26T13:48:15;3.50;;;0.90;;
55172;SDS011;41061;52.822;6.860;2023-06-26T13:50:41;3.40;;;0.90;;
55172;SDS011;41061;52.822;6.860;2023-06-26T13:53:08;3.40;;;0.77;;
55172;SDS011;41061;52.822;6.860;2023-06-26T13:55:34;4.70;;;0.85;;
55172;SDS011;41061;52.822;6.860;2023-06-26T13:58:03;1.55;;;1.00;;
55172;SDS011;41061;52.822;6.860;2023-06-26T14:00:30;7.07;;;1.23;;
55172;SDS011;41061;52.822;6.860;2023-06-26T14:02:56;3.78;;;0.95;;
55172;SDS011;41061;52.822;6.860;2023-06-26T14:05:22;4.45;;;1.17;;
55172;SDS011;41061;52.822;6.860;2023-06-26T14:07:48;3.30;;;0.90;;
55172;SDS011;41061;52.822;6.860;2023-06-26T14:10:14;4.50;;;1.00;;
55172;SDS011;41061;52.822;6.860;2023-06-26T14:12:40;3.17;;;1.67;;
55172;SDS011;41061;52.822;6.860;2023-06-26T14:15:06;3.70;;;0.98;;
55172;SDS011;41061;52.822;6.860;2023-06-26T14:17:33;5.80;;;1.05;;
55172;SDS011;41061;52.822;6.860;2023-06-26T14:19:59;4.13;;;1.13;;
55172;SDS011;41061;52.822;6.860;2023-06-26T14:22:25;6.00;;;0.90;;
55172;SDS011;41061;52.822;6.860;2023-06-26T14:24:51;4.88;;;1.55;;
55172;SDS011;41061;52.822;6.860;2023-06-26T14:27:17;4.60;;;1.17;;
55172;SDS011;41061;52.822;6.860;2023-06-26T14:29:43;4.18;;;0.90;;
55172;SDS011;41061;52.822;6.860;2023-06-26T14:32:10;3.40;;;1.00;;
55172;SDS011;41061;52.822;6.860;2023-06-26T14:34:36;3.20;;;1.50;;
55172;SDS011;41061;52.822;6.860;2023-06-26T14:37:02;3.08;;;1.08;;
55172;SDS011;41061;52.822;6.860;2023-06-26T14:39:29;4.40;;;1.15;;
55172;SDS011;41061;52.822;6.860;2023-06-26T14:41:55;3.10;;;1.55;;
55172;SDS011;41061;52.822;6.860;2023-06-26T14:44:21;7.25;;;1.20;;
55172;SDS011;41061;52.822;6.860;2023-06-26T14:46:48;7.68;;;1.17;;
55172;SDS011;41061;52.822;6.860;2023-06-26T14:49:14;4.13;;;1.13;;
55172;SDS011;41061;52.822;6.860;2023-06-26T14:51:40;5.22;;;1.67;;
55172;SDS011;41061;52.822;6.860;2023-06-26T14:54:06;7.50;;;1.13;;
55172;SDS011;41061;52.822;6.860;2023-06-26T14:56:33;10.35;;;1.40;;